Time;durP1;ratioP1;P1;durP2;ratioP2;P2;SDS_P1;SDS_P2;PMS_P1;PMS_P2;Temp;Humidity;BMP_temperature;BMP_pressure;BME280_temperature;BME280_humidity;BME280_pressure;Samples;Min_cycle;Max_cycle;Signal;HPM_P1;HPM_P2
2023/09/10 00:00:57;;;;;;;11.38;10.05;;;;;;;22.32;69.73;100063.00;4957307;28;20125;-87
2023/09/10 00:03:24;;;;;;;11.55;8.75;;;;;;;22.28;69.53;100059.03;4913973;28;20047;-88
2023/09/10 00:05:51;;;;;;;12.27;9.60;;;;;;;22.29;69.50;100055.31;4929561;28;20392;-87
2023/09/10 00:08:18;;;;;;;11.27;9.52;;;;;;;22.27;69.77;100054.66;4953365;28;20046;-87
2023/09/10 00:10:45;;;;;;;11.07;9.70;;;;;;;22.25;69.62;100059.44;4931746;28;20128;-87
2023/09/10 00:13:12;;;;;;;12.70;10.77;;;;;;;22.23;69.69;100064.22;4915404;28;20090;-87
2023/09/10 00:15:39;;;;;;;10.82;9.43;;;;;;;22.24;69.47;100067.78;4934460;28;20089;-87
2023/09/10 00:18:07;;;;;;;13.50;9.73;;;;;;;22.19;69.44;100073.81;4913119;28;20057;-87
2023/09/10 00:20:34;;;;;;;13.52;10.00;;;;;;;22.21;69.10;100077.16;4953083;28;20125;-87
2023/09/10 00:23:01;;;;;;;10.35;9.27;;;;;;;22.19;69.45;100067.53;4937717;28;20051;-86
2023/09/10 00:25:29;;;;;;;11.40;9.60;;;;;;;22.19;69.46;100070.25;4940127;28;20146;-87
2023/09/10 00:27:56;;;;;;;11.50;9.20;;;;;;;22.17;69.25;100077.72;4942786;28;20109;-87
2023/09/10 00:30:23;;;;;;;11.25;8.90;;;;;;;22.16;69.36;100071.50;4942745;28;20742;-87
2023/09/10 00:32:50;;;;;;;10.63;9.40;;;;;;;22.15;69.17;100074.38;4956237;28;20669;-86
2023/09/10 00:35:17;;;;;;;12.40;10.05;;;;;;;22.12;68.98;100072.94;4944143;28;20043;-86
2023/09/10 00:37:44;;;;;;;11.70;8.90;;;;;;;22.08;69.20;100071.66;4925905;28;20073;-87
2023/09/10 00:40:11;;;;;;;11.35;8.75;;;;;;;22.06;69.21;100069.19;4945176;28;20043;-87
2023/09/10 00:42:38;;;;;;;10.77;9.10;;;;;;;22.07;69.06;100068.13;4954484;28;20410;-88
2023/09/10 00:45:07;;;;;;;12.07;9.07;;;;;;;22.05;69.08;100062.09;4929077;28;20131;-87
2023/09/10 00:47:35;;;;;;;12.38;9.13;;;;;;;22.03;69.30;100066.88;4935822;28;20581;-87
2023/09/10 00:50:03;;;;;;;12.18;8.73;;;;;;;22.01;69.10;100068.97;4955570;28;20100;-86
2023/09/10 00:52:30;;;;;;;14.07;9.68;;;;;;;22.00;69.47;100061.88;4956163;28;20141;-87
2023/09/10 00:54:57;;;;;;;11.63;8.90;;;;;;;22.01;69.15;100070.84;4947421;28;20101;-87
2023/09/10 00:57:24;;;;;;;10.73;9.20;;;;;;;21.98;69.22;100074.78;4929942;28;20186;-88
2023/09/10 00:59:51;;;;;;;10.40;8.93;;;;;;;21.96;69.36;100065.22;4943133;28;20054;-87
2023/09/10 01:02:20;;;;;;;9.88;8.82;;;;;;;21.94;69.42;100067.28;4923247;28;20462;-87
2023/09/10 01:04:47;;;;;;;11.60;9.43;;;;;;;21.91;69.10;100068.53;4929949;28;20039;-88
2023/09/10 01:07:14;;;;;;;12.73;9.32;;;;;;;21.87;69.10;100059.97;4941690;28;20051;-88
2023/09/10 01:09:41;;;;;;;11.23;9.00;;;;;;;21.87;69.23;100067.25;4928381;28;20126;-87
2023/09/10 01:12:32;;;;;;;11.60;9.32;;;;;;;21.81;69.04;100071.59;4966299;28;20495;-87
2023/09/10 01:15:22;;;;;;;11.02;9.43;;;;;;;21.75;69.25;100063.47;4956002;28;20116;-87
2023/09/10 01:18:00;;;;;;;10.55;9.45;;;;;;;21.73;69.04;100066.38;4911743;28;20515;-88
2023/09/10 01:20:48;;;;;;;10.43;9.25;;;;;;;21.68;69.29;100067.00;4953640;28;20150;-87
2023/09/10 01:23:19;;;;;;;9.98;8.40;;;;;;;21.74;69.00;100065.34;4932232;28;20136;-87
2023/09/10 01:25:46;;;;;;;9.63;8.63;;;;;;;21.75;69.21;100056.19;4927896;28;20430;-87
2023/09/10 01:28:13;;;;;;;13.52;9.20;;;;;;;21.74;68.80;100053.69;4930848;28;20042;-87
2023/09/10 01:30:40;;;;;;;12.00;9.50;;;;;;;21.73;69.13;100063.69;4950560;28;20376;-87
2023/09/10 01:33:11;;;;;;;12.20;9.40;;;;;;;21.72;69.06;100055.78;4935746;28;20066;-87
2023/09/10 01:35:41;;;;;;;11.50;9.07;;;;;;;21.71;69.21;100063.06;4943138;28;20117;-87
2023/09/10 01:38:23;;;;;;;11.38;9.80;;;;;;;21.66;69.11;100058.25;4941557;28;20043;-87
2023/09/10 01:40:54;;;;;;;11.40;9.18;;;;;;;21.65;69.14;100059.28;4964190;28;20468;-88
2023/09/10 01:43:21;;;;;;;11.98;9.13;;;;;;;21.66;69.10;100052.84;4954100;28;20051;-87
2023/09/10 01:45:48;;;;;;;10.80;8.95;;;;;;;21.67;68.96;100057.19;4964988;28;20057;-87
2023/09/10 01:48:15;;;;;;;11.55;8.50;;;;;;;21.66;68.96;100065.53;4945799;28;20042;-86
2023/09/10 01:50:43;;;;;;;10.68;8.88;;;;;;;21.59;69.18;100065.50;4942458;28;20047;-88
2023/09/10 01:53:10;;;;;;;11.50;8.68;;;;;;;21.59;68.96;100073.59;4955056;28;20051;-86
2023/09/10 01:55:37;;;;;;;12.73;8.90;;;;;;;21.56;68.88;100068.59;4924949;28;20047;-86
2023/09/10 01:58:03;;;;;;;12.88;9.20;;;;;;;21.57;69.18;100066.72;4929485;28;20069;-86
2023/09/10 02:00:30;;;;;;;9.98;8.88;;;;;;;21.55;68.78;100071.50;4946431;28;20046;-87
2023/09/10 02:02:57;;;;;;;16.10;8.63;;;;;;;21.54;69.13;100064.44;4936238;28;20051;-86
2023/09/10 02:05:24;;;;;;;10.77;9.68;;;;;;;21.51;69.04;100067.53;4953774;28;20046;-87
2023/09/10 02:07:51;;;;;;;12.65;9.30;;;;;;;21.49;69.15;100069.63;4960062;28;20034;-88
2023/09/10 02:10:18;;;;;;;10.15;9.05;;;;;;;21.45;68.96;100067.31;4946843;28;20133;-87
2023/09/10 02:12:45;;;;;;;13.48;9.43;;;;;;;21.42;68.96;100065.03;4953163;28;20039;-87
2023/09/10 02:15:12;;;;;;;10.23;8.85;;;;;;;21.42;68.97;100074.97;4934151;28;20050;-87
2023/09/10 02:17:39;;;;;;;11.55;9.57;;;;;;;21.41;68.98;100065.22;4945637;28;20043;-87
2023/09/10 02:20:09;;;;;;;13.07;8.98;;;;;;;21.42;68.96;100069.56;4959892;28;20133;-86
2023/09/10 02:22:37;;;;;;;13.07;8.55;;;;;;;21.37;69.05;100059.34;4933391;28;20455;-87
2023/09/10 02:25:05;;;;;;;11.02;8.98;;;;;;;21.34;68.95;100059.72;4936326;28;20141;-87
2023/09/10 02:27:32;;;;;;;10.13;8.85;;;;;;;21.33;69.22;100063.47;4930105;28;20062;-88
2023/09/10 02:29:59;;;;;;;10.68;8.35;;;;;;;21.30;69.04;100063.06;4936733;28;20053;-87
2023/09/10 02:32:26;;;;;;;10.75;8.90;;;;;;;21.32;69.02;100066.38;4928984;28;20137;-87
2023/09/10 02:34:53;;;;;;;11.43;8.85;;;;;;;21.30;68.94;100071.16;4915679;28;20073;-87
2023/09/10 02:37:20;;;;;;;13.05;9.23;;;;;;;21.31;68.77;100067.41;4951008;28;20067;-87
2023/09/10 02:39:47;;;;;;;10.80;9.27;;;;;;;21.27;68.81;100071.53;4936324;28;20047;-87
2023/09/10 02:42:14;;;;;;;9.93;7.85;;;;;;;21.24;68.73;100067.38;4927881;28;20043;-86
2023/09/10 02:44:41;;;;;;;10.95;8.75;;;;;;;21.23;68.73;100071.13;4937503;28;20069;-87
2023/09/10 02:47:08;;;;;;;10.32;9.15;;;;;;;21.21;68.80;100067.78;4926768;28;20390;-86
2023/09/10 02:49:35;;;;;;;9.93;8.93;;;;;;;21.22;68.78;100069.47;4955208;28;20050;-87
2023/09/10 02:52:02;;;;;;;12.02;9.43;;;;;;;21.21;68.80;100070.47;4949557;28;20055;-86
2023/09/10 02:54:29;;;;;;;10.15;8.73;;;;;;;21.18;68.86;100073.59;4920834;28;20162;-86
2023/09/10 02:56:56;;;;;;;9.48;8.30;;;;;;;21.13;68.47;100068.78;4919867;28;20047;-86
2023/09/10 02:59:25;;;;;;;11.55;9.07;;;;;;;21.11;68.76;100064.59;4932075;28;20105;-87
2023/09/10 03:01:52;;;;;;;13.27;9.40;;;;;;;21.10;68.69;100071.88;4914051;28;20125;-87
2023/09/10 03:04:19;;;;;;;11.45;9.05;;;;;;;21.09;69.02;100067.53;4938447;28;20924;-86
2023/09/10 03:06:49;;;;;;;11.95;9.75;;;;;;;21.08;68.57;100065.00;4946985;28;20074;-86
2023/09/10 03:09:16;;;;;;;11.13;9.43;;;;;;;21.06;69.05;100069.75;4940566;28;20050;-87
2023/09/10 03:11:44;;;;;;;10.27;8.80;;;;;;;21.03;68.76;100066.44;4955964;28;20130;-87
2023/09/10 03:14:12;;;;;;;11.50;8.45;;;;;;;21.02;68.87;100072.03;4923021;28;20071;-87
2023/09/10 03:16:40;;;;;;;12.50;8.80;;;;;;;21.03;68.67;100068.28;4920098;28;20044;-87
2023/09/10 03:19:09;;;;;;;10.65;8.73;;;;;;;20.99;68.68;100077.84;4923487;28;20051;-86
2023/09/10 03:21:37;;;;;;;10.15;8.10;;;;;;;20.99;68.58;100077.84;4921272;28;20047;-87
2023/09/10 03:24:05;;;;;;;9.63;8.63;;;;;;;20.98;68.25;100076.16;4931106;28;20062;-87
2023/09/10 03:26:32;;;;;;;9.52;8.10;;;;;;;20.96;68.31;100072.81;4942662;28;20134;-87
2023/09/10 03:28:58;;;;;;;11.38;8.68;;;;;;;20.91;68.63;100070.69;4927707;28;20054;-86
2023/09/10 03:31:25;;;;;;;10.15;8.13;;;;;;;20.92;68.29;100076.97;4969213;28;20043;-87
2023/09/10 03:33:53;;;;;;;9.55;8.55;;;;;;;20.92;68.25;100074.25;4929854;28;20137;-86
2023/09/10 03:36:19;;;;;;;9.10;8.20;;;;;;;20.86;68.38;100075.03;4943070;28;20462;-87
2023/09/10 03:38:46;;;;;;;10.18;8.52;;;;;;;20.85;68.13;100071.50;4958410;28;20118;-87
2023/09/10 03:41:13;;;;;;;10.95;9.13;;;;;;;20.84;68.42;100077.09;4896625;28;20756;-87
2023/09/10 03:43:40;;;;;;;10.45;8.77;;;;;;;20.83;68.25;100075.44;4914379;28;20443;-87
2023/09/10 03:46:07;;;;;;;12.18;8.27;;;;;;;20.83;68.40;100072.72;4941243;28;20042;-86
2023/09/10 03:48:34;;;;;;;13.27;8.55;;;;;;;20.83;68.07;100061.94;4941901;28;20781;-87
2023/09/10 03:51:01;;;;;;;10.52;8.43;;;;;;;20.82;68.04;100074.59;4927271;28;20058;-86
2023/09/10 03:53:28;;;;;;;9.43;8.40;;;;;;;20.77;68.02;100066.25;4944290;28;20126;-87
2023/09/10 03:55:55;;;;;;;10.15;8.18;;;;;;;20.75;68.09;100057.53;4922811;28;20043;-88
2023/09/10 03:58:22;;;;;;;10.98;8.55;;;;;;;20.71;68.06;100062.50;4924082;28;20116;-86
2023/09/10 04:00:49;;;;;;;10.18;8.13;;;;;;;20.68;67.96;100070.94;4911612;28;20130;-87
2023/09/10 04:03:16;;;;;;;11.98;8.52;;;;;;;20.65;68.17;100065.97;4924926;28;20039;-87
2023/09/10 04:05:43;;;;;;;9.52;8.45;;;;;;;20.66;68.37;100066.78;4914459;28;20844;-86
2023/09/10 04:08:09;;;;;;;11.23;8.75;;;;;;;20.64;68.35;100069.69;4937204;28;20047;-87
2023/09/10 04:10:36;;;;;;;9.95;8.57;;;;;;;20.57;68.39;100076.91;4920974;28;20514;-87
2023/09/10 04:13:04;;;;;;;11.55;8.80;;;;;;;20.57;68.06;100074.19;4939382;28;20740;-86
2023/09/10 04:15:30;;;;;;;10.38;8.25;;;;;;;20.57;68.00;100076.91;4926859;28;20106;-86
2023/09/10 04:17:57;;;;;;;10.80;8.50;;;;;;;20.48;68.16;100078.03;4942196;28;20063;-87
2023/09/10 04:20:24;;;;;;;10.27;8.13;;;;;;;20.53;68.08;100089.06;4914912;28;20122;-87
2023/09/10 04:22:51;;;;;;;13.15;8.32;;;;;;;20.55;67.82;100093.25;4917379;28;20047;-87
2023/09/10 04:25:18;;;;;;;10.75;8.07;;;;;;;20.52;67.97;100082.00;4935783;28;20062;-87
2023/09/10 04:27:45;;;;;;;9.73;7.55;;;;;;;20.52;67.49;100087.41;4915983;28;20035;-88
2023/09/10 04:30:12;;;;;;;8.88;7.63;;;;;;;20.52;67.78;100092.81;4921109;28;20039;-86
2023/09/10 04:32:38;;;;;;;8.65;7.10;;;;;;;20.52;67.56;100095.50;4926041;28;22807;-86
2023/09/10 04:35:07;;;;;;;9.55;8.55;;;;;;;20.50;67.59;100100.25;4941983;28;20049;-86
2023/09/10 04:37:34;;;;;;;10.50;7.57;;;;;;;20.48;67.82;100096.91;4944650;28;20491;-87
2023/09/10 04:40:06;;;;;;;9.77;7.70;;;;;;;20.44;67.60;100099.16;4923733;28;21122;-86
2023/09/10 04:42:34;;;;;;;10.30;7.25;;;;;;;20.45;67.72;100100.00;4928912;28;20061;-86
2023/09/10 04:45:04;;;;;;;9.98;7.88;;;;;;;20.39;67.43;100099.75;4926825;28;20102;-87
2023/09/10 04:47:31;;;;;;;10.13;8.48;;;;;;;20.36;67.77;100105.53;4926482;28;20495;-87
2023/09/10 04:49:58;;;;;;;9.10;8.10;;;;;;;20.34;67.75;100099.47;4929929;28;20046;-86
2023/09/10 04:52:25;;;;;;;11.93;8.10;;;;;;;20.38;67.86;100113.44;4932558;28;20114;-86
2023/09/10 04:54:52;;;;;;;9.80;7.88;;;;;;;20.39;67.67;100115.09;4910224;28;20046;-87
2023/09/10 04:57:19;;;;;;;11.68;8.30;;;;;;;20.35;67.65;100121.88;4933875;28;20047;-86
2023/09/10 04:59:46;;;;;;;9.82;8.05;;;;;;;20.35;67.90;100111.97;4932124;28;20070;-86
2023/09/10 05:02:13;;;;;;;9.00;8.10;;;;;;;20.33;67.70;100116.69;4947277;28;20130;-86
2023/09/10 05:04:40;;;;;;;12.20;7.85;;;;;;;20.30;67.43;100114.41;4941770;28;20043;-87
2023/09/10 05:07:07;;;;;;;9.52;8.38;;;;;;;20.28;67.60;100115.63;4941601;28;20119;-86
2023/09/10 05:09:34;;;;;;;10.07;7.93;;;;;;;20.28;67.88;100123.72;4914722;28;20351;-87
2023/09/10 05:12:01;;;;;;;9.85;7.78;;;;;;;20.28;67.77;100123.72;4942937;28;20578;-86
2023/09/10 05:14:28;;;;;;;10.48;7.97;;;;;;;20.25;67.87;100124.06;4924920;28;20060;-87
2023/09/10 05:16:55;;;;;;;12.25;8.02;;;;;;;20.23;68.18;100126.16;4934428;28;20130;-87
2023/09/10 05:19:25;;;;;;;12.32;8.13;;;;;;;20.23;67.91;100128.84;4915180;28;20046;-86
2023/09/10 05:21:52;;;;;;;11.30;8.15;;;;;;;20.21;67.89;100120.09;4924410;28;20051;-87
2023/09/10 05:24:19;;;;;;;13.75;8.02;;;;;;;20.19;68.13;100122.97;4935013;28;20521;-86
2023/09/10 05:26:46;;;;;;;10.15;7.35;;;;;;;20.17;68.18;100131.28;4934616;28;20125;-86
2023/09/10 05:29:13;;;;;;;8.73;7.45;;;;;;;20.16;68.42;100121.50;4935335;28;20039;-86
2023/09/10 05:31:40;;;;;;;13.82;8.45;;;;;;;20.17;68.29;100119.63;4916493;28;20058;-87
2023/09/10 05:34:07;;;;;;;11.20;8.25;;;;;;;20.18;68.55;100121.31;4925527;28;20042;-86
2023/09/10 05:36:34;;;;;;;8.93;7.65;;;;;;;20.17;68.64;100125.03;4925258;28;20111;-86
2023/09/10 05:39:01;;;;;;;11.90;8.25;;;;;;;20.19;68.27;100124.84;4929362;28;20047;-86
2023/09/10 05:41:28;;;;;;;9.98;8.25;;;;;;;20.21;68.25;100133.59;4944705;28;20051;-87
2023/09/10 05:43:55;;;;;;;9.75;7.95;;;;;;;20.20;67.87;100126.50;4948596;28;20543;-86
2023/09/10 05:46:22;;;;;;;9.70;8.48;;;;;;;20.21;67.88;100133.59;4934097;28;20067;-86
2023/09/10 05:48:50;;;;;;;9.77;8.15;;;;;;;20.21;68.10;100133.59;4932723;28;20046;-86
2023/09/10 05:51:17;;;;;;;8.93;7.75;;;;;;;20.25;67.91;100129.47;4927795;28;20526;-86
2023/09/10 05:53:44;;;;;;;12.00;7.78;;;;;;;20.21;68.24;100123.63;4943702;28;20499;-86
2023/09/10 05:56:11;;;;;;;8.48;7.63;;;;;;;20.24;67.77;100120.53;4912009;28;20077;-86
2023/09/10 05:58:38;;;;;;;8.82;7.43;;;;;;;20.25;67.72;100119.53;4913567;28;20053;-88
2023/09/10 06:01:06;;;;;;;11.75;8.30;;;;;;;20.26;67.70;100131.16;4926356;28;20062;-87
2023/09/10 06:03:32;;;;;;;12.63;8.30;;;;;;;20.28;67.71;100135.31;4925289;28;20046;-86
2023/09/10 06:06:01;;;;;;;8.60;7.45;;;;;;;20.25;68.03;100130.31;4940500;28;20514;-86
2023/09/10 06:08:31;;;;;;;9.38;7.68;;;;;;;20.25;68.12;100135.72;4948891;28;20086;-86
2023/09/10 06:10:58;;;;;;;11.05;8.73;;;;;;;20.28;67.87;100139.88;4951601;28;20062;-86
2023/09/10 06:13:25;;;;;;;10.55;7.82;;;;;;;20.32;68.06;100139.28;4927937;28;20054;-86
2023/09/10 06:15:52;;;;;;;8.80;7.88;;;;;;;20.34;68.35;100139.94;4928181;28;20051;-86
2023/09/10 06:18:19;;;;;;;10.88;8.95;;;;;;;20.37;68.38;100136.03;4928517;28;20811;-87
2023/09/10 06:20:46;;;;;;;10.60;8.57;;;;;;;20.39;68.36;100142.91;4956672;28;20673;-86
2023/09/10 06:23:13;;;;;;;9.75;7.88;;;;;;;20.39;68.27;100142.06;4946095;28;20058;-87
2023/09/10 06:25:40;;;;;;;9.63;8.40;;;;;;;20.43;68.60;100140.66;4915303;28;20043;-86
2023/09/10 06:28:07;;;;;;;11.15;8.00;;;;;;;20.48;68.25;100137.38;4943177;28;20051;-87
2023/09/10 06:30:34;;;;;;;9.30;8.35;;;;;;;20.51;68.31;100143.22;4957810;28;20050;-86
2023/09/10 06:33:01;;;;;;;10.90;8.77;;;;;;;20.52;68.47;100134.09;4933348;28;20106;-86
2023/09/10 06:35:29;;;;;;;9.43;8.48;;;;;;;20.54;68.80;100140.16;4927473;28;20448;-87
2023/09/10 06:37:56;;;;;;;9.20;7.45;;;;;;;20.58;68.93;100137.91;4946909;28;20568;-86
2023/09/10 06:40:23;;;;;;;10.10;8.05;;;;;;;20.59;68.91;100137.72;4927807;28;20146;-86
2023/09/10 06:42:50;;;;;;;9.98;8.30;;;;;;;20.59;69.10;100145.81;4924504;28;20402;-87
2023/09/10 06:45:31;;;;;;;11.90;8.32;;;;;;;20.61;69.01;100129.44;4946388;28;20425;-87
2023/09/10 06:47:58;;;;;;;10.13;8.63;;;;;;;20.67;69.34;100134.06;4914941;28;20057;-87
2023/09/10 06:50:26;;;;;;;11.13;8.68;;;;;;;20.69;69.11;100139.28;4954067;28;20050;-87
2023/09/10 06:52:53;;;;;;;10.48;8.80;;;;;;;20.73;69.63;100137.84;4929924;28;20495;-84
2023/09/10 06:55:20;;;;;;;10.32;8.80;;;;;;;20.72;69.62;100137.00;4954244;28;20042;-84
2023/09/10 06:57:47;;;;;;;10.63;8.18;;;;;;;20.75;69.53;100146.56;4945298;28;20622;-82
2023/09/10 07:00:14;;;;;;;12.70;9.00;;;;;;;20.77;69.93;100137.25;4927550;28;20145;-81
2023/09/10 07:02:41;;;;;;;10.80;9.70;;;;;;;20.79;70.07;100145.16;4956175;28;20043;-81
2023/09/10 07:05:07;;;;;;;10.57;8.68;;;;;;;20.85;69.97;100148.94;4928680;28;20054;-81
2023/09/10 07:07:34;;;;;;;10.35;8.52;;;;;;;20.86;70.39;100145.22;4942858;28;20058;-81
2023/09/10 07:10:01;;;;;;;13.95;10.60;;;;;;;20.89;70.19;100152.91;4928124;28;20050;-81
2023/09/10 07:12:29;;;;;;;13.18;8.52;;;;;;;20.90;70.27;100154.59;4930579;28;20084;-81
2023/09/10 07:14:56;;;;;;;9.55;8.55;;;;;;;20.92;70.34;100153.38;4947272;28;20053;-81
2023/09/10 07:17:22;;;;;;;10.93;8.15;;;;;;;20.96;70.41;100157.38;4915429;28;20129;-81
2023/09/10 07:19:49;;;;;;;10.05;8.90;;;;;;;20.96;70.25;100151.97;4912271;28;20566;-81
2023/09/10 07:22:16;;;;;;;15.00;8.95;;;;;;;20.98;70.38;100157.16;4910617;28;20500;-81
2023/09/10 07:24:43;;;;;;;11.63;9.00;;;;;;;20.99;70.18;100148.03;4923731;28;20054;-81
2023/09/10 07:27:10;;;;;;;11.35;8.95;;;;;;;21.02;70.49;100153.88;4936162;28;20094;-81
2023/09/10 07:29:37;;;;;;;11.93;9.63;;;;;;;21.06;70.51;100157.00;4939219;28;20038;-80
2023/09/10 07:32:04;;;;;;;12.60;9.27;;;;;;;21.06;70.74;100153.47;4939766;28;20051;-82
2023/09/10 07:34:30;;;;;;;10.20;8.63;;;;;;;21.08;70.69;100156.81;4926114;28;20758;-81
2023/09/10 07:36:57;;;;;;;12.90;8.98;;;;;;;21.09;70.39;100153.94;4933174;28;20059;-81
2023/09/10 07:39:25;;;;;;;10.07;8.95;;;;;;;21.13;70.86;100155.19;4935768;28;20049;-81
2023/09/10 07:41:52;;;;;;;9.57;8.00;;;;;;;21.16;71.16;100152.09;4944110;28;20070;-81
2023/09/10 07:44:19;;;;;;;10.07;8.70;;;;;;;21.17;71.10;100150.25;4910495;28;20190;-81
2023/09/10 07:46:49;;;;;;;11.23;8.32;;;;;;;21.20;71.21;100152.53;4925179;28;20050;-81
2023/09/10 07:49:16;;;;;;;11.57;9.18;;;;;;;21.25;71.86;100158.19;4937876;28;20046;-81
2023/09/10 07:51:42;;;;;;;17.40;9.10;;;;;;;21.25;71.51;100153.63;4934539;28;20417;-81
2023/09/10 07:54:09;;;;;;;9.98;8.48;;;;;;;21.30;71.62;100157.59;4936705;28;20130;-81
2023/09/10 07:56:36;;;;;;;9.75;8.20;;;;;;;21.32;71.65;100164.47;4945394;28;20046;-81
2023/09/10 07:59:03;;;;;;;11.73;8.23;;;;;;;21.36;71.24;100164.91;4938955;28;20102;-81
2023/09/10 08:01:30;;;;;;;11.32;8.38;;;;;;;21.40;71.79;100156.25;4951478;28;20112;-81
2023/09/10 08:03:56;;;;;;;11.38;9.27;;;;;;;21.41;71.83;100163.28;4950614;28;20114;-81
2023/09/10 08:06:23;;;;;;;10.10;8.85;;;;;;;21.45;71.57;100164.56;4911616;28;20043;-82
2023/09/10 08:08:50;;;;;;;11.40;8.07;;;;;;;21.49;71.35;100169.59;4920501;28;20051;-81
2023/09/10 08:11:17;;;;;;;9.27;8.35;;;;;;;21.49;71.33;100159.59;4960044;28;20443;-82
2023/09/10 08:13:44;;;;;;;11.48;8.80;;;;;;;21.54;72.14;100165.25;4923194;28;20711;-82
2023/09/10 08:16:14;;;;;;;10.95;8.38;;;;;;;21.58;71.60;100166.53;4952771;28;20074;-82
2023/09/10 08:18:41;;;;;;;9.40;8.50;;;;;;;21.61;71.86;100159.88;4923366;28;20427;-83
2023/09/10 08:21:09;;;;;;;11.13;8.68;;;;;;;21.63;71.57;100164.06;4935946;28;20068;-82
2023/09/10 08:23:36;;;;;;;11.85;8.93;;;;;;;21.65;71.95;100153.88;4931192;28;20072;-82
2023/09/10 08:26:03;;;;;;;11.85;9.40;;;;;;;21.70;71.85;100155.13;4946838;28;20423;-84
2023/09/10 08:28:29;;;;;;;10.82;8.82;;;;;;;21.72;71.67;100159.31;4969937;28;20078;-83
2023/09/10 08:30:56;;;;;;;10.05;8.30;;;;;;;21.76;71.88;100160.59;4945427;28;20420;-83
2023/09/10 08:33:26;;;;;;;10.52;8.60;;;;;;;21.78;71.40;100161.22;4951678;28;20126;-83
2023/09/10 08:35:54;;;;;;;11.10;9.30;;;;;;;21.81;71.32;100154.59;4935934;28;20476;-83
2023/09/10 08:38:22;;;;;;;9.00;7.93;;;;;;;21.83;71.29;100161.44;4894156;28;20047;-83
2023/09/10 08:41:00;;;;;;;10.60;8.45;;;;;;;21.84;71.80;100160.41;4955460;28;20123;-83
2023/09/10 08:43:45;;;;;;;11.38;8.70;;;;;;;21.85;71.19;100164.78;4922634;28;20638;-82
2023/09/10 08:46:13;;;;;;;10.63;9.52;;;;;;;21.93;71.07;100152.97;4945697;28;20545;-83
2023/09/10 08:48:41;;;;;;;9.35;8.35;;;;;;;21.98;71.60;100152.34;4940806;28;20119;-83
2023/09/10 08:51:09;;;;;;;11.25;8.05;;;;;;;22.01;71.40;100154.66;4930705;28;20043;-82
2023/09/10 08:53:36;;;;;;;11.20;9.02;;;;;;;22.04;70.85;100154.25;4948203;28;20058;-83
2023/09/10 08:56:04;;;;;;;12.30;9.00;;;;;;;22.08;70.68;100153.66;4943015;28;20133;-83
2023/09/10 08:58:32;;;;;;;9.35;8.23;;;;;;;22.10;70.34;100150.72;4932008;28;20053;-84
2023/09/10 09:01:00;;;;;;;8.40;7.60;;;;;;;22.15;70.30;100159.06;4949187;28;20411;-83
2023/09/10 09:03:29;;;;;;;9.20;8.20;;;;;;;22.19;70.47;100148.69;4932094;28;20050;-83
2023/09/10 09:06:03;;;;;;;9.15;8.18;;;;;;;22.21;70.72;100147.47;4933616;28;20051;-83
2023/09/10 09:08:35;;;;;;;10.70;8.55;;;;;;;22.23;70.69;100141.84;4938739;28;20048;-85
2023/09/10 09:11:09;;;;;;;9.50;8.27;;;;;;;22.26;70.61;100138.72;4932645;28;20039;-85
2023/09/10 09:13:42;;;;;;;9.57;8.68;;;;;;;22.31;70.90;100137.09;4947132;28;20039;-85
2023/09/10 09:16:10;;;;;;;9.38;7.72;;;;;;;22.39;70.36;100146.03;4929690;28;20039;-83
2023/09/10 09:18:39;;;;;;;11.60;8.98;;;;;;;22.43;70.87;100141.88;4947947;28;20053;-86
2023/09/10 09:21:12;;;;;;;11.85;9.77;;;;;;;22.47;70.52;100141.28;4928786;28;20047;-85
2023/09/10 09:23:45;;;;;;;17.40;12.27;;;;;;;22.46;70.35;100142.28;4931025;28;20474;-85
2023/09/10 09:26:14;;;;;;;22.00;13.93;;;;;;;22.55;70.04;100137.53;4935544;28;20050;-83
2023/09/10 09:28:41;;;;;;;18.08;12.13;;;;;;;22.60;70.21;100140.47;4958100;28;20379;-85
2023/09/10 09:31:11;;;;;;;16.25;12.43;;;;;;;22.64;69.82;100138.97;4949006;28;20098;-85
2023/09/10 09:33:38;;;;;;;15.77;10.65;;;;;;;22.66;69.29;100142.31;4954324;28;20101;-86
2023/09/10 09:36:13;;;;;;;11.98;9.77;;;;;;;22.65;68.75;100129.84;4946089;28;20043;-87
2023/09/10 09:38:42;;;;;;;15.48;10.75;;;;;;;22.73;69.07;100135.03;4938299;28;20054;-85
2023/09/10 09:41:09;;;;;;;13.63;9.88;;;;;;;22.76;68.72;100123.78;4940364;28;20051;-84
2023/09/10 09:43:36;;;;;;;10.35;9.15;;;;;;;22.82;69.10;100121.28;4927194;28;20456;-84
2023/09/10 09:46:03;;;;;;;12.98;9.07;;;;;;;22.87;68.53;100125.06;4942200;28;21966;-86
2023/09/10 09:48:30;;;;;;;9.40;8.25;;;;;;;22.90;68.24;100115.69;4926683;28;20168;-86
2023/09/10 09:50:57;;;;;;;9.68;8.38;;;;;;;22.91;68.72;100114.63;4946478;28;20110;-88
2023/09/10 09:53:30;;;;;;;9.15;8.10;;;;;;;22.93;67.90;100113.38;4934812;28;20423;-86
2023/09/10 09:55:59;;;;;;;;;;;;;;;22.84;68.05;100109.22;4928948;28;20059;-86
2023/09/10 09:58:27;;;;;;;13.23;8.93;;;;;;;23.05;68.10;100107.34;4970200;28;20375;-86
2023/09/10 10:00:58;;;;;;;8.95;8.05;;;;;;;23.08;68.64;100094.22;4931140;28;20035;-85
2023/09/10 10:03:25;;;;;;;10.18;8.60;;;;;;;23.11;67.97;100096.50;4930634;28;20074;-84
2023/09/10 10:05:52;;;;;;;8.90;7.72;;;;;;;23.12;67.96;100100.88;4946084;28;20046;-84
2023/09/10 10:08:25;;;;;;;9.52;7.85;;;;;;;23.14;67.02;100100.66;4945619;28;20047;-89
2023/09/10 10:10:53;;;;;;;13.05;8.32;;;;;;;23.19;67.27;100098.16;4941597;28;20117;-89
2023/09/10 10:13:22;;;;;;;9.68;8.75;;;;;;;23.24;67.41;100097.53;4939645;28;20113;-90
2023/09/10 10:15:52;;;;;;;11.57;8.27;;;;;;;23.27;66.62;100088.97;4946495;28;20094;-83
2023/09/10 10:18:21;;;;;;;9.25;7.70;;;;;;;23.30;66.66;100086.66;4916594;28;20046;-83
2023/09/10 10:20:49;;;;;;;10.20;8.02;;;;;;;23.36;66.31;100079.56;4927601;28;20058;-83
2023/09/10 10:23:17;;;;;;;9.98;8.15;;;;;;;23.37;66.53;100076.63;4910994;28;20122;-83
2023/09/10 10:25:52;;;;;;;10.43;8.48;;;;;;;23.40;66.19;100068.06;4929462;28;20050;-86
2023/09/10 10:28:20;;;;;;;9.05;7.45;;;;;;;23.44;66.44;100065.78;4911522;28;20054;-85
2023/09/10 10:30:53;;;;;;;8.30;7.20;;;;;;;23.45;66.49;100063.91;4938613;28;20043;-86
2023/09/10 10:33:20;;;;;;;;;;;;;;;23.32;67.18;100072.91;4911479;28;20051;-87
2023/09/10 10:36:08;;;;;;;8.93;7.57;;;;;;;23.45;66.16;100061.19;4943412;28;19961;-90
2023/09/10 10:38:36;;;;;;;8.30;7.10;;;;;;;23.54;65.03;100062.63;4943550;28;20037;-87
2023/09/10 10:41:08;;;;;;;7.22;6.22;;;;;;;23.56;64.85;100057.78;4949615;28;20054;-89
2023/09/10 10:43:41;;;;;;;8.98;6.65;;;;;;;23.57;64.70;100054.06;4930830;28;20047;-91
2023/09/10 10:46:09;;;;;;;9.25;6.72;;;;;;;23.60;64.07;100054.44;4930943;28;20087;-91
2023/09/10 10:48:41;;;;;;;7.13;6.43;;;;;;;23.65;64.31;100053.81;4934426;28;20107;-90
2023/09/10 10:51:10;;;;;;;9.45;7.03;;;;;;;23.70;63.17;100053.16;4950080;28;20074;-87
2023/09/10 10:53:37;;;;;;;8.27;6.95;;;;;;;23.78;62.17;100050.22;4912289;28;20047;-88
2023/09/10 10:56:08;;;;;;;7.93;7.07;;;;;;;23.81;62.37;100052.50;4945682;28;20043;-87
2023/09/10 10:58:39;;;;;;;8.40;7.60;;;;;;;23.82;62.21;100041.44;4946751;28;20658;-88
2023/09/10 11:01:06;;;;;;;9.70;7.10;;;;;;;23.87;61.85;100048.09;4931930;28;20054;-88
2023/09/10 11:03:36;;;;;;;7.55;6.80;;;;;;;23.89;60.81;100049.56;4929807;28;20054;-85
2023/09/10 11:06:04;;;;;;;9.15;6.68;;;;;;;23.91;61.70;100050.13;4966612;28;20114;-84
2023/09/10 11:08:38;;;;;;;8.38;6.88;;;;;;;23.93;61.93;100045.34;4926083;28;20979;-84
2023/09/10 11:11:41;;;;;;;7.28;6.38;;;;;;;23.88;61.66;100041.63;4940078;28;20047;-85
2023/09/10 11:14:10;;;;;;;9.18;7.22;;;;;;;23.94;62.01;100038.88;4953473;28;20051;-90
2023/09/10 11:16:44;;;;;;;8.35;7.40;;;;;;;23.97;61.82;100035.72;4934936;28;20082;-91
2023/09/10 11:19:42;;;;;;;6.88;6.18;;;;;;;23.91;61.30;100031.16;4930737;28;20556;-88
2023/09/10 11:22:09;;;;;;;8.57;7.18;;;;;;;23.98;61.49;100023.81;4956187;28;20101;-88
2023/09/10 11:24:36;;;;;;;7.40;6.60;;;;;;;24.03;61.49;100026.69;4965703;28;20046;-88